createdAt,value
2023-03-13T00:01:41.598Z,101272.19
2023-03-13T00:04:08.831Z,101221.03
2023-03-13T00:06:37.836Z,101265.28
2023-03-13T00:09:07.332Z,101266.28
2023-03-13T00:11:34.688Z,101232.34
2023-03-13T00:14:04.072Z,101207.53
2023-03-13T00:16:31.829Z,101267.72
2023-03-13T00:18:59.288Z,101272.63
2023-03-13T00:21:28.728Z,101269.69
2023-03-13T00:24:16.198Z,101236.50
2023-03-13T00:26:56.984Z,101237.63
2023-03-13T00:29:23.884Z,101230.47
2023-03-13T00:31:50.904Z,101213.88
2023-03-13T00:34:17.853Z,101187.09
2023-03-13T00:36:44.867Z,101237.63
2023-03-13T00:39:11.842Z,101213.06
2023-03-13T00:41:59.214Z,101231.59
2023-03-13T00:44:39.761Z,101238.56
2023-03-13T00:47:27.221Z,101044.59
2023-03-13T00:50:29.230Z,101269.00
2023-03-13T00:53:10.215Z,101219.88
2023-03-13T00:55:37.156Z,101164.72
2023-03-13T00:58:05.657Z,101222.13
2023-03-13T01:00:32.756Z,101220.81
2023-03-13T01:02:59.784Z,101259.44
2023-03-13T01:05:26.778Z,101255.28
2023-03-13T01:07:53.757Z,101061.50
2023-03-13T01:10:20.737Z,101165.88
2023-03-13T01:12:47.704Z,101181.03
2023-03-13T01:15:14.817Z,101213.91
2023-03-13T01:17:44.128Z,101281.44
2023-03-13T01:20:15.693Z,101237.06
2023-03-13T01:22:42.727Z,101252.84
2023-03-13T01:25:09.884Z,101198.50
2023-03-13T01:27:37.120Z,101203.56
2023-03-13T01:30:04.594Z,101210.63
2023-03-13T01:32:34.104Z,101275.53
2023-03-13T01:35:02.792Z,101196.19
2023-03-13T01:37:29.729Z,101198.13
2023-03-13T01:39:56.755Z,101251.72
2023-03-13T01:43:07.767Z,101282.84
2023-03-13T01:46:28.450Z,101285.22
2023-03-13T01:49:46.260Z,101270.59
2023-03-13T01:52:38.001Z,101235.31
2023-03-13T01:55:17.809Z,101268.59
2023-03-13T01:57:52.891Z,101272.91
2023-03-13T02:00:30.011Z,101241.66
2023-03-13T02:03:01.799Z,101261.13
2023-03-13T02:05:30.994Z,101230.03
2023-03-13T02:08:03.949Z,101273.81
2023-03-13T02:10:33.870Z,101205.53
2023-03-13T02:13:02.716Z,101208.13
2023-03-13T02:15:31.377Z,101286.44
2023-03-13T02:17:58.549Z,101169.75
2023-03-13T02:20:25.619Z,101257.28
2023-03-13T02:23:01.787Z,101285.50
2023-03-13T02:28:58.226Z,101222.75
2023-03-13T02:31:27.418Z,101214.13
2023-03-13T02:33:56.176Z,101256.84
2023-03-13T02:36:23.843Z,101271.44
2023-03-13T02:38:57.845Z,101287.69
2023-03-13T02:41:47.293Z,101226.50
2023-03-13T02:44:53.267Z,101279.41
2023-03-13T02:47:54.303Z,101283.28
2023-03-13T02:50:55.296Z,101222.41
2023-03-13T02:53:30.838Z,101295.97
2023-03-13T02:55:57.884Z,101246.13
2023-03-13T02:58:56.289Z,101254.34
2023-03-13T03:01:36.916Z,101244.94
2023-03-13T03:04:04.071Z,101267.78
2023-03-13T03:06:31.474Z,101227.59
2023-03-13T03:08:58.897Z,101279.94
2023-03-13T03:11:27.445Z,101263.75
2023-03-13T03:14:03.775Z,101229.50
2023-03-13T03:16:36.470Z,101250.78
2023-03-13T03:19:06.757Z,101230.59
2023-03-13T03:21:34.539Z,101162.56
2023-03-13T03:24:01.903Z,101223.41
2023-03-13T03:26:28.996Z,101216.72
2023-03-13T03:28:56.017Z,101236.28
2023-03-13T03:31:23.437Z,101227.47
2023-03-13T03:33:50.626Z,101246.53
2023-03-13T03:36:21.391Z,101278.06
2023-03-13T03:38:49.238Z,101261.63
2023-03-13T03:41:33.301Z,101281.50
2023-03-13T03:44:34.301Z,101231.72
2023-03-13T03:47:35.426Z,101251.19
2023-03-13T03:50:29.396Z,101227.38
2023-03-13T03:53:10.586Z,101284.63
2023-03-13T03:55:37.638Z,101284.97
2023-03-13T03:58:04.772Z,101281.91
2023-03-13T04:00:52.007Z,101202.88
2023-03-13T04:03:19.083Z,101235.81
2023-03-13T04:05:46.241Z,101275.47
2023-03-13T04:08:14.647Z,101149.72
2023-03-13T04:10:43.785Z,101297.50
2023-03-13T04:13:10.913Z,101240.34
2023-03-13T04:15:39.793Z,101245.59
2023-03-13T04:18:28.773Z,101254.84
2023-03-13T04:21:22.398Z,101310.72
2023-03-13T04:23:54.035Z,101334.34
2023-03-13T04:26:21.746Z,101311.59
2023-03-13T04:28:51.197Z,101237.63
2023-03-13T04:31:26.753Z,101257.97
2023-03-13T04:34:03.893Z,101299.34
2023-03-13T04:37:03.091Z,101247.03
2023-03-13T04:40:02.425Z,101323.03
2023-03-13T04:43:07.361Z,101294.84
2023-03-13T04:46:21.391Z,101306.28
2023-03-13T04:49:53.337Z,101335.31
2023-03-13T04:52:51.089Z,101291.97
2023-03-13T04:55:30.940Z,101304.81
2023-03-13T04:58:40.383Z,101329.81
2023-03-13T05:01:34.021Z,101315.22
2023-03-13T05:04:19.725Z,101311.38
2023-03-13T05:07:09.732Z,101295.34
2023-03-13T05:10:15.372Z,101306.13
2023-03-13T05:13:21.945Z,101297.81
2023-03-13T05:16:04.121Z,101351.59
2023-03-13T05:18:52.011Z,101335.25
2023-03-13T05:21:42.056Z,101317.91
2023-03-13T05:24:22.256Z,101292.50
2023-03-13T05:27:24.471Z,101340.97
2023-03-13T05:30:25.441Z,101294.38
2023-03-13T05:33:14.072Z,101311.47
2023-03-13T05:35:48.790Z,101333.03
2023-03-13T05:38:26.802Z,101320.75
2023-03-13T05:41:12.276Z,101327.59
2023-03-13T05:44:26.384Z,101324.13
2023-03-13T05:47:38.380Z,101326.56
2023-03-13T05:50:51.020Z,101302.00
2023-03-13T05:53:41.361Z,101333.44
2023-03-13T05:56:28.516Z,101328.44
2023-03-13T05:59:08.723Z,101369.53
2023-03-13T06:01:56.006Z,101308.13
2023-03-13T06:04:57.514Z,101345.22
2023-03-13T06:07:58.456Z,101307.34
2023-03-13T06:10:38.924Z,101317.91
2023-03-13T06:13:26.403Z,101296.56
2023-03-13T06:16:12.058Z,101307.84
2023-03-13T06:19:05.388Z,101347.34
2023-03-13T06:21:46.413Z,101355.69
2023-03-13T06:24:13.376Z,101350.94
2023-03-13T06:26:40.318Z,101322.19
2023-03-13T06:29:07.250Z,101356.84
2023-03-13T06:31:34.714Z,101264.34
2023-03-13T06:34:02.008Z,101173.72
2023-03-13T06:36:29.039Z,101327.50
2023-03-13T06:38:56.120Z,101315.13
2023-03-13T06:41:43.557Z,101311.38
2023-03-13T06:44:34.625Z,101367.13
2023-03-13T06:47:01.640Z,101318.84
2023-03-13T06:49:28.598Z,101345.09
2023-03-13T06:51:58.867Z,101373.09
2023-03-13T06:54:26.083Z,101292.44
2023-03-13T06:56:53.133Z,101328.97
2023-03-13T06:59:20.082Z,101334.78
2023-03-13T07:01:47.194Z,101308.94
2023-03-13T07:04:14.534Z,101323.50
2023-03-13T07:06:41.799Z,101301.63
2023-03-13T07:09:28.428Z,101218.00
2023-03-13T07:12:29.438Z,101326.19
2023-03-13T07:15:10.539Z,101280.16
2023-03-13T07:17:57.448Z,101307.31
2023-03-13T07:20:38.164Z,101321.81
2023-03-13T07:23:05.167Z,101267.66
2023-03-13T07:25:32.126Z,101214.06
2023-03-13T07:28:01.141Z,101250.03
2023-03-13T07:30:28.867Z,101370.13
2023-03-13T07:32:56.078Z,101357.47
2023-03-13T07:35:43.463Z,101341.91
2023-03-13T07:38:24.970Z,101360.84
2023-03-13T07:40:54.367Z,101290.84
2023-03-13T07:43:41.475Z,101328.88
2023-03-13T07:46:42.468Z,101336.50
2023-03-13T07:49:23.025Z,101379.81
2023-03-13T07:51:51.175Z,101390.81
2023-03-13T07:54:18.270Z,101380.34
2023-03-13T07:56:45.250Z,101305.19
2023-03-13T07:59:12.359Z,101370.91
2023-03-13T08:01:39.315Z,101395.06
2023-03-13T08:04:27.454Z,101391.59
2023-03-13T08:07:11.578Z,101424.47
2023-03-13T08:09:38.700Z,101426.28
2023-03-13T08:12:25.513Z,101361.78
2023-03-13T08:15:32.505Z,101394.88
2023-03-13T08:18:33.581Z,101392.53
2023-03-13T08:21:42.473Z,101430.69
2023-03-13T08:24:37.473Z,101393.19
2023-03-13T08:27:17.974Z,101393.84
2023-03-13T08:29:45.087Z,101377.69
2023-03-13T08:32:12.023Z,101351.03
2023-03-13T08:34:39.049Z,101336.84
2023-03-13T08:37:29.476Z,101352.28
2023-03-13T08:40:11.491Z,101366.31
2023-03-13T08:42:51.515Z,101360.50
2023-03-13T08:45:32.293Z,101382.97
2023-03-13T08:47:59.277Z,101360.00
2023-03-13T08:50:26.359Z,101231.28
2023-03-13T08:52:53.304Z,101253.13
2023-03-13T08:55:20.342Z,101293.03
2023-03-13T08:57:47.381Z,101323.13
2023-03-13T09:00:15.101Z,101286.72
2023-03-13T09:03:02.534Z,101324.63
2023-03-13T09:05:55.243Z,101368.81
2023-03-13T09:08:23.637Z,101376.25
2023-03-13T09:11:01.374Z,101387.28
2023-03-13T09:13:30.696Z,101387.56
2023-03-13T09:16:06.645Z,101357.66
2023-03-13T09:18:54.524Z,101340.06
2023-03-13T09:21:55.511Z,101343.72
2023-03-13T09:24:36.063Z,101408.13
2023-03-13T09:27:02.948Z,101408.81
2023-03-13T09:29:30.021Z,101386.41
2023-03-13T09:31:56.982Z,101331.25
2023-03-13T09:34:25.555Z,101259.88
2023-03-13T09:36:52.556Z,101360.34
2023-03-13T09:39:19.615Z,101347.13
2023-03-13T09:42:08.511Z,101405.94
2023-03-13T09:45:08.354Z,101403.44
2023-03-13T09:47:47.192Z,101327.69
2023-03-13T09:50:22.278Z,101389.88
2023-03-13T09:52:53.549Z,101383.91
2023-03-13T09:55:44.557Z,101370.88
2023-03-13T09:58:28.581Z,101394.22
2023-03-13T10:01:01.219Z,101377.97
2023-03-13T10:04:09.607Z,101359.97
2023-03-13T10:06:52.124Z,101383.16
2023-03-13T10:09:22.236Z,101375.75
2023-03-13T10:12:21.435Z,101342.38
2023-03-13T10:15:16.323Z,101347.38
2023-03-13T10:17:44.229Z,101368.56
2023-03-13T10:20:14.072Z,101358.81
2023-03-13T10:22:44.212Z,101309.06
2023-03-13T10:25:43.932Z,101332.47
2023-03-13T10:28:13.399Z,101328.22
2023-03-13T10:30:46.679Z,101339.56
2023-03-13T10:33:20.985Z,101345.97
2023-03-13T10:36:00.432Z,101338.28
2023-03-13T10:38:27.450Z,101338.97
2023-03-13T10:41:42.566Z,101320.88
2023-03-13T10:44:46.578Z,101338.41
2023-03-13T10:47:47.813Z,101332.88
2023-03-13T10:50:27.356Z,101336.00
2023-03-13T10:52:55.251Z,101277.44
2023-03-13T10:55:42.621Z,101290.03
2023-03-13T10:58:33.409Z,101162.78
2023-03-13T11:01:38.599Z,101300.97
2023-03-13T11:04:50.583Z,101304.97
2023-03-13T11:07:52.582Z,101291.66
2023-03-13T11:10:37.085Z,101232.41
2023-03-13T11:13:04.057Z,101256.78
2023-03-13T11:15:39.693Z,101308.31
2023-03-13T11:18:16.429Z,101318.44
2023-03-13T11:21:17.401Z,101319.25
2023-03-13T11:23:53.540Z,101306.59
2023-03-13T11:26:26.502Z,101309.84
2023-03-13T11:29:14.243Z,101263.88
2023-03-13T11:31:52.008Z,101296.91
2023-03-13T11:34:37.196Z,101298.56
2023-03-13T11:37:11.800Z,101293.78
2023-03-13T11:40:07.592Z,101286.63
2023-03-13T11:43:31.593Z,101285.66
2023-03-13T11:46:23.524Z,101278.75
2023-03-13T11:49:05.704Z,101274.94
2023-03-13T11:51:32.796Z,101263.56
2023-03-13T11:54:37.682Z,101263.63
2023-03-13T11:57:42.610Z,101231.47
2023-03-13T12:00:29.509Z,101229.88
2023-03-13T12:03:30.664Z,101226.34
2023-03-13T12:06:50.624Z,101243.41
2023-03-13T12:09:23.792Z,101232.88
2023-03-13T12:12:03.543Z,101152.56
2023-03-13T12:14:54.632Z,101220.13
2023-03-13T12:18:16.653Z,101211.34
2023-03-13T12:21:31.399Z,101195.84
2023-03-13T12:23:58.440Z,101186.28
2023-03-13T12:26:53.455Z,101161.38
2023-03-13T12:29:48.549Z,101181.69
2023-03-13T12:32:27.474Z,101185.44
2023-03-13T12:35:09.015Z,101183.06
2023-03-13T12:37:50.844Z,101136.72
2023-03-13T12:40:54.656Z,101119.72
2023-03-13T12:44:08.358Z,101158.41
2023-03-13T12:47:16.266Z,101157.06
2023-03-13T12:49:56.584Z,101154.78
2023-03-13T12:53:10.681Z,101146.13
2023-03-13T12:56:32.640Z,101131.25
2023-03-13T12:59:22.319Z,101137.00
2023-03-13T13:02:10.662Z,101132.28
2023-03-13T13:05:14.671Z,101127.44
2023-03-13T13:08:15.827Z,101096.44
2023-03-13T13:10:52.571Z,101087.19
2023-03-13T13:13:31.112Z,101105.50
2023-03-13T13:16:11.497Z,101112.97
2023-03-13T13:18:38.581Z,101056.31
2023-03-13T13:21:05.575Z,101103.25
2023-03-13T13:23:40.268Z,101105.28
2023-03-13T13:26:40.029Z,101095.47
2023-03-13T13:29:13.225Z,101103.34
2023-03-13T13:31:46.483Z,101098.63
2023-03-13T13:34:40.291Z,101083.47
2023-03-13T13:37:13.241Z,101101.47
2023-03-13T13:40:05.757Z,101109.22
2023-03-13T13:43:12.658Z,101050.91
2023-03-13T13:46:10.801Z,101099.19
2023-03-13T13:48:40.120Z,101066.31
2023-03-13T13:51:31.669Z,101084.47
2023-03-13T13:54:32.711Z,101066.50
2023-03-13T13:57:23.050Z,101069.03
2023-03-13T13:59:57.536Z,101055.31
2023-03-13T14:02:47.203Z,101053.09
2023-03-13T14:05:29.098Z,101052.09
2023-03-13T14:08:40.951Z,101043.63
2023-03-13T14:11:50.727Z,101051.41
2023-03-13T14:14:51.690Z,101027.34
2023-03-13T14:17:57.726Z,101039.25
2023-03-13T14:21:04.972Z,100979.13
2023-03-13T14:23:46.728Z,100992.72
2023-03-13T14:26:18.020Z,101035.31
2023-03-13T14:28:48.598Z,101044.44
2023-03-13T14:31:28.781Z,101042.19
2023-03-13T14:33:57.958Z,101007.91
2023-03-13T14:36:25.559Z,101005.84
2023-03-13T14:39:13.726Z,101024.25
2023-03-13T14:42:22.702Z,101017.88
2023-03-13T14:45:16.040Z,101016.81
2023-03-13T14:47:44.315Z,100984.34
2023-03-13T14:50:31.747Z,101002.19
2023-03-13T14:53:35.738Z,100992.47
2023-03-13T14:56:51.749Z,101019.53
2023-03-13T14:59:32.421Z,100932.66
2023-03-13T15:02:24.436Z,100998.09
2023-03-13T15:05:02.609Z,100989.59
2023-03-13T15:08:00.745Z,101011.81
2023-03-13T15:10:42.371Z,100976.25
2023-03-13T15:13:49.767Z,101006.22
2023-03-13T15:16:50.772Z,100933.47
2023-03-13T15:19:36.957Z,100975.56
2023-03-13T15:22:04.153Z,100990.59
2023-03-13T15:24:31.870Z,100944.47
2023-03-13T15:26:58.788Z,100979.50
2023-03-13T15:29:25.877Z,100938.50
2023-03-13T15:31:52.829Z,100900.25
2023-03-13T15:34:40.790Z,100938.84
2023-03-13T15:37:21.598Z,100953.41
2023-03-13T15:40:13.745Z,100947.41
2023-03-13T15:43:14.763Z,100957.28
2023-03-13T15:45:55.332Z,100928.16
2023-03-13T15:48:25.418Z,100899.19
2023-03-13T15:51:07.759Z,100972.78
2023-03-13T15:54:08.791Z,100962.56
2023-03-13T15:57:09.778Z,100932.50
2023-03-13T16:00:12.890Z,100900.59
2023-03-13T16:03:13.793Z,100886.72
2023-03-13T16:05:53.845Z,100962.38
2023-03-13T16:08:42.781Z,100917.97
2023-03-13T16:11:24.964Z,100959.69
2023-03-13T16:13:52.996Z,100854.22
2023-03-13T16:16:23.460Z,100935.03
2023-03-13T16:18:52.717Z,100935.53
2023-03-13T16:21:23.548Z,100952.09
2023-03-13T16:23:50.873Z,100901.78
2023-03-13T16:26:21.399Z,100921.28
2023-03-13T16:28:49.449Z,100847.84
2023-03-13T16:31:30.602Z,100914.00
2023-03-13T16:34:17.828Z,100828.84
2023-03-13T16:37:27.825Z,100902.47
2023-03-13T16:40:34.842Z,100887.88
2023-03-13T16:43:35.841Z,100880.31
2023-03-13T16:46:22.513Z,100894.31
2023-03-13T16:49:10.812Z,100904.25
2023-03-13T16:52:11.809Z,100819.22
2023-03-13T16:55:12.863Z,100873.31
2023-03-13T16:58:13.806Z,100820.03
2023-03-13T17:01:14.832Z,100813.59
2023-03-13T17:03:56.462Z,100796.75
2023-03-13T17:06:27.254Z,100897.97
2023-03-13T17:08:55.198Z,100839.00
2023-03-13T17:11:23.111Z,100877.88
2023-03-13T17:13:53.192Z,100851.97
2023-03-13T17:16:23.714Z,100880.28
2023-03-13T17:18:52.709Z,100880.28
2023-03-13T17:21:25.960Z,100867.28
2023-03-13T17:23:53.674Z,100795.84
2023-03-13T17:26:24.224Z,100757.53
2023-03-13T17:29:11.802Z,100838.63
2023-03-13T17:31:52.376Z,100864.34
2023-03-13T17:34:20.224Z,100854.66
2023-03-13T17:36:47.698Z,100847.53
2023-03-13T17:39:34.843Z,100867.16
2023-03-13T17:42:35.834Z,100800.53
2023-03-13T17:45:19.718Z,100833.63
2023-03-13T17:47:47.364Z,100821.97
2023-03-13T17:50:39.807Z,100864.38
2023-03-13T17:53:40.890Z,100874.94
2023-03-13T17:56:44.824Z,100869.00
2023-03-13T17:59:45.866Z,100867.25
2023-03-13T18:02:26.495Z,100849.53
2023-03-13T18:04:53.807Z,100774.03
2023-03-13T18:07:40.833Z,100822.25
2023-03-13T18:10:40.690Z,100787.56
2023-03-13T18:13:07.633Z,100827.72
2023-03-13T18:15:34.710Z,100831.53
2023-03-13T18:18:02.059Z,100776.31
2023-03-13T18:20:31.513Z,100838.31
2023-03-13T18:23:00.831Z,100779.56
2023-03-13T18:25:29.296Z,100837.88
2023-03-13T18:28:09.878Z,100767.28
2023-03-13T18:30:50.544Z,100823.34
2023-03-13T18:33:17.559Z,100790.63
2023-03-13T18:35:44.530Z,100771.38
2023-03-13T18:38:13.933Z,100743.97
2023-03-13T18:41:00.903Z,100776.63
2023-03-13T18:44:02.898Z,100738.97
2023-03-13T18:46:43.934Z,100738.91
2023-03-13T18:49:32.864Z,100716.69
2023-03-13T18:52:13.759Z,100746.84
2023-03-13T18:55:14.866Z,100729.13
2023-03-13T18:57:56.155Z,100793.03
2023-03-13T19:00:31.065Z,100784.47
2023-03-13T19:03:17.895Z,100701.75
2023-03-13T19:06:00.347Z,100695.25
2023-03-13T19:08:27.539Z,100766.53
2023-03-13T19:10:54.691Z,100741.16
2023-03-13T19:13:21.630Z,100712.00
2023-03-13T19:15:49.309Z,100674.81
2023-03-13T19:18:16.464Z,100718.16
2023-03-13T19:20:43.554Z,100721.56
2023-03-13T19:23:30.912Z,100685.56
2023-03-13T19:26:50.887Z,100758.28
2023-03-13T19:29:36.422Z,100760.09
2023-03-13T19:32:07.699Z,100666.69
2023-03-13T19:34:34.789Z,100722.81
2023-03-13T19:37:29.956Z,100772.22
2023-03-13T19:40:18.813Z,100708.84
2023-03-13T19:43:05.946Z,100766.97
2023-03-13T19:45:47.921Z,100705.31
2023-03-13T19:48:15.448Z,100769.31
2023-03-13T19:50:42.881Z,100754.66
2023-03-13T19:53:29.919Z,100752.84
2023-03-13T19:56:32.066Z,100740.22
2023-03-13T19:59:41.247Z,100734.22
2023-03-13T20:02:11.150Z,100739.13
2023-03-13T20:04:59.394Z,100709.50
2023-03-13T20:07:39.822Z,100667.31
2023-03-13T20:10:27.022Z,100723.69
2023-03-13T20:13:07.628Z,100653.69
2023-03-13T20:15:34.812Z,100682.19
2023-03-13T20:18:02.100Z,100530.41
2023-03-13T20:20:29.372Z,100627.69
2023-03-13T20:22:56.909Z,100493.38
2023-03-13T20:25:44.284Z,100659.16
2023-03-13T20:28:45.125Z,100663.75
2023-03-13T20:31:47.298Z,100724.50
2023-03-13T20:34:28.253Z,100618.94
2023-03-13T20:36:57.217Z,100733.75
2023-03-13T20:39:43.955Z,100627.69
2023-03-13T20:45:39.539Z,100644.38
2023-03-13T20:48:06.944Z,100730.56
2023-03-13T20:50:34.786Z,100700.66
2023-03-13T20:53:23.025Z,100715.22
2023-03-13T20:56:06.575Z,100692.66
2023-03-13T20:58:35.660Z,100542.25
2023-03-13T21:01:03.793Z,100619.16
2023-03-13T21:03:50.967Z,100703.81
2023-03-13T21:06:52.003Z,100697.53
2023-03-13T21:09:52.987Z,100699.38
2023-03-13T21:12:54.952Z,100652.38
2023-03-13T21:15:36.672Z,100674.63
2023-03-13T21:18:04.546Z,100683.25
2023-03-13T21:20:31.720Z,100552.53
2023-03-13T21:23:19.083Z,100576.31
2023-03-13T21:26:20.006Z,100619.63
2023-03-13T21:29:21.425Z,100637.19
2023-03-13T21:32:22.070Z,100636.19
2023-03-13T21:35:24.030Z,100622.53
2023-03-13T21:38:24.648Z,100562.50
2023-03-13T21:41:12.082Z,100631.66
2023-03-13T21:44:21.256Z,100566.91
2023-03-13T21:47:25.416Z,100590.47
2023-03-13T21:50:08.190Z,100516.72
2023-03-13T21:52:55.146Z,100591.25
2023-03-13T21:55:38.292Z,100491.91
2023-03-13T21:58:05.643Z,100526.34
2023-03-13T22:00:33.946Z,100547.66
2023-03-13T22:03:01.081Z,100522.09
2023-03-13T22:05:28.117Z,100481.81
2023-03-13T22:08:14.981Z,100466.88
2023-03-13T22:11:15.996Z,100526.13
2023-03-13T22:13:56.563Z,100520.75
2023-03-13T22:16:25.992Z,100513.59
2023-03-13T22:18:53.548Z,100445.56
2023-03-13T22:21:21.346Z,100520.00
2023-03-13T22:23:48.284Z,100430.66
2023-03-13T22:26:35.007Z,100454.84
2023-03-13T22:29:15.552Z,100466.63
2023-03-13T22:31:42.470Z,100405.34
2023-03-13T22:34:09.538Z,100472.78
2023-03-13T22:36:38.137Z,100351.50
2023-03-13T22:39:05.072Z,100426.72
2023-03-13T22:41:52.019Z,100434.22
2023-03-13T22:44:46.206Z,100355.56
2023-03-13T22:47:40.134Z,100361.94
2023-03-13T22:50:20.946Z,100372.44
2023-03-13T22:53:08.001Z,100351.34
2023-03-13T22:55:48.894Z,100383.16
2023-03-13T22:58:16.012Z,100409.84
2023-03-13T23:00:43.023Z,100393.47
2023-03-13T23:03:10.190Z,100428.78
2023-03-13T23:05:41.078Z,100336.06
2023-03-13T23:08:08.076Z,100383.41
2023-03-13T23:11:00.021Z,100344.28
2023-03-13T23:14:01.035Z,100286.81
2023-03-13T23:16:41.605Z,100333.88
2023-03-13T23:19:08.582Z,100275.28
2023-03-13T23:21:35.571Z,100332.94
2023-03-13T23:24:02.612Z,100292.31
2023-03-13T23:26:50.071Z,100276.19
2023-03-13T23:29:30.690Z,100291.25
2023-03-13T23:31:57.623Z,100357.91
2023-03-13T23:34:24.854Z,100313.47
2023-03-13T23:36:52.035Z,100304.63
2023-03-13T23:39:32.095Z,100306.47
2023-03-13T23:42:33.020Z,100250.06
2023-03-13T23:45:34.065Z,100302.19
2023-03-13T23:48:25.840Z,100277.53
2023-03-13T23:50:52.926Z,100326.16
2023-03-13T23:53:20.008Z,100244.69
2023-03-13T23:55:47.364Z,100281.25
2023-03-13T23:58:14.294Z,100177.00
